Live aus Altenrhein
LIVE
LSZR 181550Z 24019G38KT 210V290 9999 FEW030 SCT050 11/03 Q1006 NOSIG RMK K
Zeitraffer heute
2018-01-18 00:14:58
LSZR 172250Z AUTO 24013G28KT 220V290 9999 NSC 04/M04 Q1015
Zeitraffer gestern
2018-01-17 00:14:53
LSZR 162250Z AUTO 25009KT 220V290 9999 RA OVC021 05/02 Q1002
Zeitraffer vor 3 Tagen
2018-01-15 00:00:00
LSZR 142250Z AUTO VRB01KT 7000 NCD M01/M02 Q1022